createdAt,value
2022-08-24T00:02:26.632Z,82.01
2022-08-24T00:04:57.118Z,82.13
2022-08-24T00:07:28.601Z,81.89
2022-08-24T00:10:01.537Z,82.20
2022-08-24T00:12:32.524Z,82.59
2022-08-24T00:15:03.249Z,82.53
2022-08-24T00:17:34.144Z,82.99
2022-08-24T00:20:05.742Z,82.90
2022-08-24T00:22:36.544Z,83.06
2022-08-24T00:25:07.975Z,83.13
2022-08-24T00:27:39.721Z,83.43
2022-08-24T00:30:14.988Z,83.63
2022-08-24T00:32:47.162Z,83.70
2022-08-24T00:35:19.943Z,83.61
2022-08-24T00:37:52.229Z,83.48
2022-08-24T00:40:33.334Z,83.07
2022-08-24T00:43:05.789Z,83.69
2022-08-24T00:45:45.183Z,84.06
2022-08-24T00:48:18.642Z,83.96
2022-08-24T00:50:53.877Z,84.39
2022-08-24T00:53:39.097Z,84.15
2022-08-24T00:56:15.604Z,84.66
2022-08-24T00:58:56.851Z,84.72
2022-08-24T01:01:24.411Z,84.84
2022-08-24T01:03:57.637Z,84.89
2022-08-24T01:06:28.430Z,84.89
2022-08-24T01:08:58.810Z,84.97
2022-08-24T01:11:33.679Z,85.18
2022-08-24T01:14:06.132Z,84.98
2022-08-24T01:16:54.682Z,84.78
2022-08-24T01:19:39.775Z,85.04
2022-08-24T01:22:21.734Z,85.33
2022-08-24T01:24:52.647Z,85.48
2022-08-24T01:27:27.977Z,85.43
2022-08-24T01:29:58.354Z,85.52
2022-08-24T01:32:29.019Z,85.59
2022-08-24T01:34:59.593Z,85.25
2022-08-24T01:37:32.547Z,85.51
2022-08-24T01:40:06.742Z,85.79
2022-08-24T01:42:38.101Z,85.47
2022-08-24T01:45:09.244Z,85.52
2022-08-24T01:47:40.160Z,85.72
2022-08-24T01:50:10.581Z,85.06
2022-08-24T01:53:03.997Z,84.60
2022-08-24T01:55:19.010Z,85.40
2022-08-24T01:57:49.015Z,85.66
2022-08-24T02:00:20.114Z,85.85
2022-08-24T02:02:50.938Z,85.90
2022-08-24T02:05:22.046Z,86.04
2022-08-24T02:07:54.770Z,85.58
2022-08-24T02:10:28.457Z,85.11
2022-08-24T02:12:59.741Z,85.90
2022-08-24T02:15:37.968Z,85.85
2022-08-24T02:18:15.624Z,86.23
2022-08-24T02:20:45.705Z,86.03
2022-08-24T02:23:17.251Z,85.98
2022-08-24T02:25:48.565Z,86.58
2022-08-24T02:28:20.368Z,86.02
2022-08-24T02:30:51.010Z,87.14
2022-08-24T02:33:23.995Z,87.23
2022-08-24T02:35:55.082Z,87.58
2022-08-24T02:38:25.454Z,87.73
2022-08-24T02:40:57.563Z,87.77
2022-08-24T02:43:28.365Z,87.29
2022-08-24T02:45:58.938Z,87.23
2022-08-24T02:48:30.207Z,87.15
2022-08-24T02:51:00.915Z,86.73
2022-08-24T02:53:31.422Z,87.01
2022-08-24T02:56:01.807Z,86.83
2022-08-24T02:58:33.244Z,87.08
2022-08-24T03:01:03.851Z,87.20
2022-08-24T03:03:35.926Z,87.28
2022-08-24T03:06:08.048Z,87.42
2022-08-24T03:08:38.727Z,87.06
2022-08-24T03:11:09.517Z,87.09
2022-08-24T03:13:40.756Z,87.41
2022-08-24T03:16:11.381Z,87.70
2022-08-24T03:18:42.699Z,87.68
2022-08-24T03:21:14.916Z,87.79
2022-08-24T03:23:45.483Z,87.61
2022-08-24T03:26:16.216Z,87.69
2022-08-24T03:28:47.160Z,87.77
2022-08-24T03:31:19.638Z,87.35
2022-08-24T03:33:50.168Z,87.61
2022-08-24T03:36:20.646Z,87.71
2022-08-24T03:38:51.186Z,87.66
2022-08-24T03:41:21.568Z,87.68
2022-08-24T03:43:52.305Z,87.85
2022-08-24T03:46:27.057Z,87.75
2022-08-24T03:48:59.159Z,87.67
2022-08-24T03:51:30.552Z,87.52
2022-08-24T03:54:02.366Z,87.64
2022-08-24T03:56:33.069Z,87.69
2022-08-24T03:59:04.363Z,87.58
2022-08-24T04:01:35.068Z,87.80
2022-08-24T04:04:06.607Z,87.78
2022-08-24T04:06:37.521Z,87.64
2022-08-24T04:09:08.043Z,87.58
2022-08-24T04:11:41.543Z,87.91
2022-08-24T04:14:26.573Z,87.79
2022-08-24T04:16:45.522Z,87.55
2022-08-24T04:19:17.785Z,87.30
2022-08-24T04:21:48.510Z,87.39
2022-08-24T04:24:19.866Z,87.12
2022-08-24T04:26:50.246Z,87.31
2022-08-24T04:29:21.568Z,87.42
2022-08-24T04:31:51.989Z,87.33
2022-08-24T04:34:22.747Z,86.80
2022-08-24T04:36:53.255Z,86.93
2022-08-24T04:39:23.728Z,86.24
2022-08-24T04:41:55.816Z,85.98
2022-08-24T04:44:26.359Z,86.10
2022-08-24T04:46:56.824Z,86.13
2022-08-24T04:49:27.625Z,86.11
2022-08-24T04:51:58.397Z,86.12
2022-08-24T04:54:28.878Z,85.79
2022-08-24T04:56:59.547Z,85.41
2022-08-24T04:59:30.033Z,85.38
2022-08-24T05:02:00.608Z,85.04
2022-08-24T05:04:33.583Z,84.60
2022-08-24T05:07:04.088Z,84.59
2022-08-24T05:09:34.562Z,84.52
2022-08-24T05:12:09.984Z,83.91
2022-08-24T05:14:40.519Z,81.76
2022-08-24T05:17:12.980Z,76.01
2022-08-24T05:19:43.586Z,70.13
2022-08-24T05:22:14.157Z,66.14
2022-08-24T05:24:44.643Z,61.81
2022-08-24T05:27:16.280Z,58.47
2022-08-24T05:29:48.410Z,57.12
2022-08-24T05:32:19.894Z,56.92
2022-08-24T05:34:50.292Z,54.93
2022-08-24T05:37:20.718Z,54.25
2022-08-24T05:39:51.186Z,55.30
2022-08-24T05:42:22.712Z,55.38
2022-08-24T05:44:53.353Z,54.68
2022-08-24T05:47:26.006Z,56.41
2022-08-24T05:49:56.440Z,57.76
2022-08-24T05:52:27.053Z,58.20
2022-08-24T05:55:00.455Z,56.78
2022-08-24T05:57:33.725Z,59.14
2022-08-24T06:00:08.347Z,59.73
2022-08-24T06:02:39.257Z,60.29
2022-08-24T06:05:12.805Z,56.35
2022-08-24T06:07:43.379Z,51.63
2022-08-24T06:10:35.280Z,49.66
2022-08-24T06:12:46.454Z,48.14
2022-08-24T06:15:17.655Z,47.98
2022-08-24T06:17:48.303Z,45.95
2022-08-24T06:20:18.866Z,44.02
2022-08-24T06:22:49.507Z,43.64
2022-08-24T06:25:38.228Z,46.46
2022-08-24T06:28:08.719Z,47.80
2022-08-24T06:30:39.660Z,51.52
2022-08-24T06:33:10.927Z,56.55
2022-08-24T06:35:46.834Z,57.94
2022-08-24T06:38:14.982Z,62.12
2022-08-24T06:40:47.437Z,63.12
2022-08-24T06:43:19.296Z,64.17
2022-08-24T06:45:51.919Z,65.10
2022-08-24T06:48:23.130Z,67.86
2022-08-24T06:50:55.669Z,74.49
2022-08-24T06:53:27.143Z,76.16
2022-08-24T06:55:59.953Z,77.11
2022-08-24T06:58:30.354Z,76.12
2022-08-24T07:01:10.422Z,75.53
2022-08-24T07:03:41.090Z,75.32
2022-08-24T07:06:12.672Z,75.53
2022-08-24T07:08:44.715Z,76.54
2022-08-24T07:11:18.780Z,76.94
2022-08-24T07:13:50.435Z,75.80
2022-08-24T07:16:22.133Z,73.93
2022-08-24T07:18:52.604Z,74.96
2022-08-24T07:21:24.592Z,74.41
2022-08-24T07:24:04.851Z,72.56
2022-08-24T07:26:37.175Z,71.62
2022-08-24T07:29:47.231Z,72.88
2022-08-24T07:31:57.484Z,74.32
2022-08-24T07:34:29.235Z,74.68
2022-08-24T07:37:00.712Z,74.53
2022-08-24T07:39:31.708Z,73.67
2022-08-24T07:42:12.967Z,73.31
2022-08-24T07:44:36.039Z,73.14
2022-08-24T07:47:27.208Z,72.84
2022-08-24T07:49:40.522Z,72.20
2022-08-24T07:52:11.010Z,71.77
2022-08-24T07:54:41.410Z,71.70
2022-08-24T07:57:11.890Z,71.00
2022-08-24T07:59:42.968Z,69.42
2022-08-24T08:02:14.716Z,69.23
2022-08-24T08:04:45.261Z,70.53
2022-08-24T08:07:19.803Z,71.08
2022-08-24T08:09:50.798Z,69.42
2022-08-24T08:12:21.303Z,69.54
2022-08-24T08:14:51.729Z,68.40
2022-08-24T08:17:22.132Z,69.17
2022-08-24T08:19:52.653Z,67.85
2022-08-24T08:22:41.311Z,66.43
2022-08-24T08:25:12.323Z,68.42
2022-08-24T08:30:13.847Z,69.99
2022-08-24T08:32:44.468Z,69.93
2022-08-24T08:35:15.315Z,69.48
2022-08-24T08:37:46.375Z,71.38
2022-08-24T08:40:27.237Z,72.27
2022-08-24T08:43:09.543Z,70.21
2022-08-24T08:46:04.447Z,68.52
2022-08-24T08:49:06.640Z,69.41
2022-08-24T08:51:45.911Z,68.79
2022-08-24T08:54:19.490Z,67.90
2022-08-24T08:57:17.454Z,67.28
2022-08-24T08:59:54.209Z,67.82
2022-08-24T09:02:33.597Z,67.04
2022-08-24T09:05:09.309Z,65.56
2022-08-24T09:08:11.347Z,67.28
2022-08-24T09:10:55.536Z,68.98
2022-08-24T09:13:56.434Z,67.73
2022-08-24T09:16:44.956Z,68.84
2022-08-24T09:19:34.660Z,66.97
2022-08-24T09:22:14.162Z,67.76
2022-08-24T09:24:56.854Z,67.41
2022-08-24T09:27:55.859Z,68.69
2022-08-24T09:30:29.901Z,71.07
2022-08-24T09:33:24.542Z,73.63
2022-08-24T09:36:10.176Z,73.61
2022-08-24T09:39:07.842Z,73.26
2022-08-24T09:42:02.824Z,72.98
2022-08-24T09:44:53.042Z,70.30
2022-08-24T09:47:43.287Z,69.86
2022-08-24T09:50:22.814Z,70.13
2022-08-24T09:53:31.260Z,68.31
2022-08-24T09:56:36.967Z,71.41
2022-08-24T09:59:29.875Z,69.74
2022-08-24T10:02:18.541Z,69.72
2022-08-24T10:05:09.890Z,69.16
2022-08-24T10:07:52.645Z,69.61
2022-08-24T10:10:28.867Z,70.63
2022-08-24T10:13:25.010Z,71.34
2022-08-24T10:16:03.414Z,69.07
2022-08-24T10:18:56.976Z,68.78
2022-08-24T10:21:42.470Z,68.53
2022-08-24T10:24:18.485Z,67.14
2022-08-24T10:26:54.931Z,68.44
2022-08-24T10:29:41.951Z,67.67
2022-08-24T10:32:21.613Z,65.83
2022-08-24T10:35:16.349Z,68.91
2022-08-24T10:38:00.327Z,70.02
2022-08-24T10:41:05.892Z,67.61
2022-08-24T10:43:39.761Z,66.97
2022-08-24T10:46:41.903Z,68.99
2022-08-24T10:49:18.182Z,69.87
2022-08-24T10:52:08.177Z,68.88
2022-08-24T10:54:39.276Z,67.74
2022-08-24T10:57:24.946Z,68.37
2022-08-24T11:00:12.432Z,69.34
2022-08-24T11:02:46.740Z,68.22
2022-08-24T11:05:20.319Z,66.80
2022-08-24T11:08:05.137Z,67.74
2022-08-24T11:10:39.164Z,66.92
2022-08-24T11:13:21.694Z,66.02
2022-08-24T11:15:57.870Z,67.41
2022-08-24T11:18:40.200Z,66.30
2022-08-24T11:21:16.743Z,66.18
2022-08-24T11:23:47.998Z,64.59
2022-08-24T11:26:22.986Z,63.64
2022-08-24T11:29:01.620Z,64.45
2022-08-24T11:31:37.834Z,64.89
2022-08-24T11:34:17.484Z,63.81
2022-08-24T11:36:48.060Z,63.03
2022-08-24T11:39:33.237Z,64.19
2022-08-24T11:42:12.838Z,65.67
2022-08-24T11:44:46.514Z,67.01
2022-08-24T11:47:34.678Z,66.13
2022-08-24T11:50:23.520Z,66.62
2022-08-24T11:53:12.399Z,65.37
2022-08-24T11:56:03.776Z,63.84
2022-08-24T11:58:41.374Z,64.98
2022-08-24T12:01:44.506Z,65.54
2022-08-24T12:04:42.349Z,63.73
2022-08-24T12:07:37.170Z,63.71
2022-08-24T12:10:24.260Z,63.53
2022-08-24T12:13:31.050Z,64.79
2022-08-24T12:16:13.560Z,64.68
2022-08-24T12:18:50.281Z,64.47
2022-08-24T12:21:23.731Z,62.87
2022-08-24T12:23:57.310Z,62.92
2022-08-24T12:26:40.026Z,61.68
2022-08-24T12:29:13.676Z,62.22
2022-08-24T12:31:47.301Z,61.47
2022-08-24T12:34:23.805Z,61.92
2022-08-24T12:37:00.045Z,62.11
2022-08-24T12:39:36.480Z,62.39
2022-08-24T12:42:11.101Z,62.55
2022-08-24T12:44:50.304Z,62.31
2022-08-24T12:47:30.538Z,61.07
2022-08-24T12:50:12.706Z,60.73
2022-08-24T12:53:04.254Z,59.71
2022-08-24T12:56:14.933Z,58.46
2022-08-24T12:58:57.648Z,58.24
2022-08-24T13:01:33.177Z,57.88
2022-08-24T13:04:31.431Z,57.09
2022-08-24T13:07:08.966Z,57.82
2022-08-24T13:09:54.305Z,58.15
2022-08-24T13:12:43.645Z,59.23
2022-08-24T13:15:29.706Z,59.16
2022-08-24T13:18:09.711Z,59.37
2022-08-24T13:20:46.870Z,58.99
2022-08-24T13:23:23.325Z,58.90
2022-08-24T13:26:03.195Z,57.71
2022-08-24T13:28:45.786Z,57.95
2022-08-24T13:31:28.484Z,57.36
2022-08-24T13:34:02.116Z,56.02
2022-08-24T13:36:38.414Z,55.68
2022-08-24T13:39:29.047Z,55.19
2022-08-24T13:42:21.540Z,55.29
2022-08-24T13:45:14.752Z,55.19
2022-08-24T13:48:03.679Z,55.33
2022-08-24T13:50:51.263Z,55.96
2022-08-24T13:53:47.535Z,56.59
2022-08-24T13:56:44.443Z,57.53
2022-08-24T13:59:22.498Z,56.65
2022-08-24T14:02:20.301Z,57.08
2022-08-24T14:05:14.972Z,59.01
2022-08-24T14:08:08.168Z,59.08
2022-08-24T14:10:47.559Z,60.18
2022-08-24T14:13:38.918Z,60.26
2022-08-24T14:16:49.762Z,59.93
2022-08-24T14:19:32.132Z,58.07
2022-08-24T14:22:14.533Z,58.49
2022-08-24T14:24:48.552Z,59.63
2022-08-24T14:27:44.831Z,58.85
2022-08-24T14:30:22.637Z,59.32
2022-08-24T14:33:04.946Z,59.36
2022-08-24T14:35:45.055Z,58.22
2022-08-24T14:38:28.592Z,57.80
2022-08-24T14:41:23.782Z,57.88
2022-08-24T14:44:20.429Z,57.06
2022-08-24T14:46:54.461Z,56.33
2022-08-24T14:49:46.794Z,56.85
2022-08-24T14:52:23.263Z,56.41
2022-08-24T14:55:05.891Z,56.62
2022-08-24T14:58:03.701Z,57.72
2022-08-24T15:00:53.910Z,57.97
2022-08-24T15:03:39.304Z,58.01
2022-08-24T15:06:32.944Z,58.07
2022-08-24T15:09:12.637Z,57.63
2022-08-24T15:11:43.850Z,57.67
2022-08-24T15:14:24.357Z,57.22
2022-08-24T15:17:05.729Z,58.25
2022-08-24T15:19:54.459Z,58.50
2022-08-24T15:22:41.020Z,58.56
2022-08-24T15:25:16.191Z,58.24
2022-08-24T15:27:51.326Z,57.74
2022-08-24T15:30:28.018Z,57.31
2022-08-24T15:33:19.389Z,58.01
2022-08-24T15:35:51.835Z,58.70
2022-08-24T15:38:25.280Z,58.65
2022-08-24T15:41:17.036Z,58.46
2022-08-24T15:43:53.379Z,58.47
2022-08-24T15:46:38.981Z,58.95
2022-08-24T15:49:20.470Z,58.58
2022-08-24T15:52:06.461Z,58.62
2022-08-24T15:54:40.013Z,58.47
2022-08-24T15:57:32.285Z,58.71
2022-08-24T16:00:19.759Z,59.19
2022-08-24T16:02:50.216Z,59.11
2022-08-24T16:05:26.326Z,59.24
2022-08-24T16:08:09.381Z,59.37
2022-08-24T16:10:54.618Z,60.05
2022-08-24T16:13:33.384Z,58.86
2022-08-24T16:16:07.317Z,59.56
2022-08-24T16:19:02.098Z,59.74
2022-08-24T16:21:41.148Z,60.33
2022-08-24T16:24:15.490Z,60.80
2022-08-24T16:26:51.715Z,60.84
2022-08-24T16:29:44.715Z,61.03
2022-08-24T16:32:43.341Z,61.00
2022-08-24T16:35:12.171Z,61.09
2022-08-24T16:37:43.227Z,61.01
2022-08-24T16:40:14.051Z,61.14
2022-08-24T16:42:44.668Z,61.29
2022-08-24T16:45:19.842Z,61.27
2022-08-24T16:47:50.785Z,61.46
2022-08-24T16:50:22.200Z,61.58
2022-08-24T16:52:54.285Z,61.76
2022-08-24T16:55:25.816Z,61.68
2022-08-24T16:57:57.055Z,61.77
2022-08-24T17:00:27.532Z,61.74
2022-08-24T17:02:58.086Z,61.83
2022-08-24T17:05:29.655Z,61.80
2022-08-24T17:08:02.080Z,61.89
2022-08-24T17:10:37.368Z,61.84
2022-08-24T17:13:04.794Z,61.90
2022-08-24T17:15:36.707Z,61.93
2022-08-24T17:18:10.172Z,61.96
2022-08-24T17:20:41.758Z,62.14
2022-08-24T17:23:12.757Z,62.38
2022-08-24T17:25:43.437Z,62.46
2022-08-24T17:28:17.118Z,62.69
2022-08-24T17:30:51.391Z,62.72
2022-08-24T17:33:22.510Z,62.85
2022-08-24T17:35:54.870Z,62.56
2022-08-24T17:38:25.462Z,63.12
2022-08-24T17:40:55.830Z,63.53
2022-08-24T17:43:26.335Z,63.84
2022-08-24T17:45:57.137Z,64.29
2022-08-24T17:48:28.417Z,64.38
2022-08-24T17:50:58.876Z,64.66
2022-08-24T17:53:29.347Z,64.77
2022-08-24T17:55:59.852Z,64.68
2022-08-24T17:58:32.099Z,64.77
2022-08-24T18:01:02.512Z,65.01
2022-08-24T18:03:32.966Z,65.52
2022-08-24T18:06:03.448Z,65.94
2022-08-24T18:08:34.403Z,65.86
2022-08-24T18:11:04.883Z,66.11
2022-08-24T18:13:35.249Z,66.38
2022-08-24T18:16:06.314Z,66.56
2022-08-24T18:18:36.859Z,67.03
2022-08-24T18:21:07.436Z,67.09
2022-08-24T18:23:43.642Z,67.50
2022-08-24T18:26:11.366Z,67.72
2022-08-24T18:28:42.306Z,67.72
2022-08-24T18:31:15.314Z,67.94
2022-08-24T18:33:45.895Z,68.27
2022-08-24T18:36:17.189Z,68.46
2022-08-24T18:38:47.617Z,68.53
2022-08-24T18:41:18.229Z,68.72
2022-08-24T18:43:48.741Z,68.86
2022-08-24T18:46:19.250Z,69.15
2022-08-24T18:48:49.827Z,69.27
2022-08-24T18:51:21.683Z,69.51
2022-08-24T18:53:54.682Z,69.70
2022-08-24T18:56:25.156Z,70.17
2022-08-24T18:58:58.008Z,70.50
2022-08-24T19:01:29.757Z,70.57
2022-08-24T19:04:06.013Z,71.08
2022-08-24T19:06:32.597Z,71.34
2022-08-24T19:09:03.135Z,71.56
2022-08-24T19:11:33.711Z,71.75
2022-08-24T19:14:04.547Z,72.13
2022-08-24T19:16:35.077Z,72.13
2022-08-24T19:19:06.436Z,72.10
2022-08-24T19:21:37.801Z,72.18
2022-08-24T19:24:08.930Z,72.69
2022-08-24T19:26:39.455Z,72.92
2022-08-24T19:29:09.926Z,72.92
2022-08-24T19:31:40.362Z,73.49
2022-08-24T19:34:11.523Z,73.60
2022-08-24T19:36:43.796Z,73.91
2022-08-24T19:39:14.253Z,73.76
2022-08-24T19:41:48.362Z,73.94
2022-08-24T19:44:39.019Z,74.07
2022-08-24T19:47:11.202Z,74.49
2022-08-24T19:49:41.601Z,74.62
2022-08-24T19:52:12.117Z,75.01
2022-08-24T19:54:45.426Z,75.11
2022-08-24T19:57:37.225Z,75.27
2022-08-24T20:00:19.430Z,75.51
2022-08-24T20:02:51.911Z,75.76
2022-08-24T20:05:24.970Z,76.03
2022-08-24T20:07:56.338Z,76.23
2022-08-24T20:10:27.326Z,76.18
2022-08-24T20:12:57.795Z,76.46
2022-08-24T20:15:28.688Z,76.33
2022-08-24T20:17:59.755Z,76.65
2022-08-24T20:20:32.322Z,76.95
2022-08-24T20:23:04.651Z,77.24
2022-08-24T20:25:36.998Z,77.54
2022-08-24T20:30:40.863Z,77.80
2022-08-24T20:33:17.339Z,77.29
2022-08-24T20:35:47.896Z,77.77
2022-08-24T20:38:21.248Z,78.76
2022-08-24T20:40:52.684Z,79.00
2022-08-24T20:43:23.144Z,79.10
2022-08-24T20:45:54.264Z,79.06
2022-08-24T20:48:30.308Z,79.34
2022-08-24T20:51:01.641Z,79.44
2022-08-24T20:53:32.072Z,79.84
2022-08-24T20:56:05.681Z,79.79
2022-08-24T20:58:36.304Z,80.35
2022-08-24T21:01:08.413Z,80.40
2022-08-24T21:03:39.697Z,80.72
2022-08-24T21:06:12.894Z,80.97
2022-08-24T21:08:46.008Z,81.21
2022-08-24T21:11:17.080Z,81.46
2022-08-24T21:13:47.625Z,81.33
2022-08-24T21:16:18.468Z,81.79
2022-08-24T21:18:49.252Z,81.67
2022-08-24T21:21:20.444Z,82.01
2022-08-24T21:23:50.921Z,82.23
2022-08-24T21:26:24.441Z,82.50
2022-08-24T21:28:57.264Z,82.45
2022-08-24T21:31:28.682Z,82.32
2022-08-24T21:34:17.182Z,82.34
2022-08-24T21:36:49.210Z,82.51
2022-08-24T21:39:19.777Z,82.73
2022-08-24T21:41:50.337Z,82.85
2022-08-24T21:44:20.788Z,82.56
2022-08-24T21:46:52.101Z,82.69
2022-08-24T21:49:22.814Z,83.14
2022-08-24T21:51:53.454Z,83.24
2022-08-24T21:54:24.008Z,83.30
2022-08-24T21:56:54.958Z,83.15
2022-08-24T21:59:25.443Z,83.14
2022-08-24T22:01:57.716Z,83.44
2022-08-24T22:04:28.627Z,83.41
2022-08-24T22:07:00.010Z,83.60
2022-08-24T22:09:30.567Z,83.66
2022-08-24T22:12:01.904Z,83.83
2022-08-24T22:14:32.358Z,83.83
2022-08-24T22:17:02.796Z,83.76
2022-08-24T22:19:33.341Z,83.64
2022-08-24T22:22:03.707Z,83.92
2022-08-24T22:24:34.689Z,84.09
2022-08-24T22:27:05.367Z,84.13
2022-08-24T22:29:35.784Z,84.29
2022-08-24T22:32:06.811Z,84.20
2022-08-24T22:34:37.733Z,84.20
2022-08-24T22:37:08.168Z,84.29
2022-08-24T22:39:38.525Z,84.02
2022-08-24T22:42:09.830Z,84.20
2022-08-24T22:44:40.295Z,84.37
2022-08-24T22:47:13.164Z,84.41
2022-08-24T22:49:45.896Z,84.62
2022-08-24T22:52:16.748Z,84.60
2022-08-24T22:54:47.351Z,84.55
2022-08-24T22:57:19.966Z,84.71
2022-08-24T22:59:52.809Z,84.45
2022-08-24T23:02:24.783Z,84.14
2022-08-24T23:04:55.304Z,84.21
2022-08-24T23:07:25.796Z,84.12
2022-08-24T23:09:56.289Z,84.19
2022-08-24T23:12:29.077Z,83.57
2022-08-24T23:14:59.677Z,84.38
2022-08-24T23:17:30.160Z,84.96
2022-08-24T23:20:00.906Z,84.80
2022-08-24T23:22:37.705Z,84.77
2022-08-24T23:25:11.492Z,84.78
2022-08-24T23:27:46.558Z,84.93
2022-08-24T23:30:16.117Z,84.72
2022-08-24T23:32:47.580Z,84.66
2022-08-24T23:35:18.413Z,84.56
2022-08-24T23:37:48.940Z,84.98
2022-08-24T23:40:20.202Z,85.01
2022-08-24T23:42:51.825Z,84.59
2022-08-24T23:45:28.331Z,84.86
2022-08-24T23:47:57.074Z,84.96
2022-08-24T23:50:27.122Z,84.91
2022-08-24T23:52:57.623Z,84.68
2022-08-24T23:55:28.378Z,84.90
2022-08-24T23:57:58.938Z,84.90
